Time;durP1;ratioP1;P1;durP2;ratioP2;P2;SDS_P1;SDS_P2;PMS_P1;PMS_P2;Temp;Humidity;BMP_temperature;BMP_pressure;BME280_temperature;BME280_humidity;BME280_pressure;Samples;Min_cycle;Max_cycle;Signal;HPM_P1;HPM_P2
2022/01/02 00:12:34;;;;;;;20.13;9.60;;;;;;;5.84;100.00;101082.77;713911;1175;113800;-78
2022/01/02 00:27:41;;;;;;;13.40;6.80;;;;;;;5.79;100.00;101068.34;713785;1202;113647;-76
2022/01/02 00:42:43;;;;;;;12.00;7.00;;;;;;;5.83;100.00;101075.05;714044;1177;113815;-76
2022/01/02 00:57:58;;;;;;;11.98;6.53;;;;;;;5.80;100.00;101042.20;713974;1200;113914;-77
2022/01/02 01:13:03;;;;;;;16.90;8.03;;;;;;;5.89;100.00;101000.97;713957;1203;114383;-76
2022/01/02 01:28:05;;;;;;;17.35;7.55;;;;;;;5.80;100.00;101012.73;713798;1177;114556;-76
2022/01/02 01:43:09;;;;;;;11.78;5.90;;;;;;;5.84;100.00;100956.95;714060;1177;113857;-76
2022/01/02 01:58:12;;;;;;;8.07;5.10;;;;;;;5.67;100.00;100908.45;713859;1199;115504;-76
2022/01/02 02:13:14;;;;;;;13.17;6.17;;;;;;;5.73;100.00;100889.02;713690;1200;115127;-76
2022/01/02 02:28:17;;;;;;;10.40;5.50;;;;;;;5.79;100.00;100873.91;713792;1203;114390;-76
2022/01/02 02:58:41;;;;;;;16.30;7.13;;;;;;;5.80;100.00;100815.67;714118;1200;113860;-76
2022/01/02 03:13:44;;;;;;;16.03;8.17;;;;;;;5.89;100.00;100787.44;713975;1199;115006;-77
2022/01/02 03:28:46;;;;;;;23.20;11.47;;;;;;;5.87;100.00;100756.25;713931;1175;114124;-75
2022/01/02 03:43:50;;;;;;;26.03;11.13;;;;;;;5.95;100.00;100714.13;713901;1203;114233;-76
2022/01/02 03:58:52;;;;;;;25.00;11.80;;;;;;;5.99;100.00;100679.17;714079;1200;114640;-76
2022/01/02 04:13:55;;;;;;;24.00;12.45;;;;;;;6.06;100.00;100670.05;714808;1199;115454;-75
2022/01/02 04:28:57;;;;;;;23.20;13.03;;;;;;;6.23;100.00;100644.69;713817;1175;113891;-76
2022/01/02 04:44:00;;;;;;;22.90;13.17;;;;;;;6.24;100.00;100625.52;714467;1205;114094;-78
2022/01/02 04:59:02;;;;;;;30.83;16.20;;;;;;;6.20;100.00;100611.03;714847;1199;115374;-76
2022/01/02 05:14:04;;;;;;;32.15;16.25;;;;;;;6.31;100.00;100564.28;713956;1188;113995;-75
2022/01/02 05:29:06;;;;;;;29.85;16.65;;;;;;;6.32;100.00;100553.75;713895;1200;114778;-76
2022/01/02 05:44:09;;;;;;;47.35;19.15;;;;;;;6.38;100.00;100518.63;713884;1203;113873;-76
2022/01/02 05:59:11;;;;;;;43.78;22.40;;;;;;;6.44;100.00;100454.81;713797;1176;113974;-76
2022/01/02 06:14:13;;;;;;;38.05;18.60;;;;;;;6.57;100.00;100452.22;713853;1175;115274;-77
2022/01/02 06:29:15;;;;;;;37.58;19.63;;;;;;;6.68;100.00;100441.90;713713;1185;113854;-77
2022/01/02 06:44:18;;;;;;;43.75;19.70;;;;;;;6.73;100.00;100395.48;713869;1199;115533;-78
2022/01/02 06:59:20;;;;;;;38.33;19.00;;;;;;;6.89;100.00;100383.95;713905;1200;114984;-77
2022/01/02 07:14:23;;;;;;;41.87;20.20;;;;;;;7.08;100.00;100358.22;713647;1199;114147;-78
2022/01/02 07:29:25;;;;;;;97.65;59.30;;;;;;;7.36;100.00;100363.22;713819;1199;115085;-78
2022/01/02 07:44:29;;;;;;;51.83;28.35;;;;;;;7.44;100.00;100314.73;713875;1203;114212;-78
2022/01/02 07:59:31;;;;;;;42.93;20.52;;;;;;;7.56;100.00;100306.91;714569;1174;114821;-78
2022/01/02 08:14:53;;;;;;;39.88;18.95;;;;;;;7.79;100.00;100229.45;714372;1177;113611;-77
2022/01/02 08:29:55;;;;;;;38.60;20.77;;;;;;;8.02;100.00;100234.66;714645;1199;114422;-77
2022/01/02 08:44:57;;;;;;;50.00;24.70;;;;;;;8.33;100.00;100230.47;714371;1199;113648;-77
2022/01/02 09:00:00;;;;;;;74.90;36.23;;;;;;;8.69;100.00;100225.05;714518;1200;114767;-73
2022/01/02 09:15:02;;;;;;;81.50;36.18;;;;;;;8.94;100.00;100164.52;714380;1199;114712;-75
2022/01/02 09:30:15;;;;;;;70.13;31.73;;;;;;;9.35;100.00;100100.98;715048;1175;114582;-77
2022/01/02 09:46:02;;;;;;;80.00;51.93;;;;;;;9.45;100.00;100101.84;715661;1174;114404;-77
2022/01/02 10:01:24;;;;;;;45.63;23.13;;;;;;;9.76;100.00;100060.69;715214;1174;114508;-78
2022/01/02 10:16:34;;;;;;;58.08;26.90;;;;;;;10.00;100.00;100020.17;714629;1199;115005;-73
2022/01/02 10:31:36;;;;;;;59.35;27.60;;;;;;;10.14;100.00;99971.75;714723;1174;114436;-78
2022/01/02 10:47:05;;;;;;;55.20;26.73;;;;;;;10.32;100.00;99935.17;715153;1174;113934;-81
2022/01/02 11:02:10;;;;;;;50.90;24.30;;;;;;;10.42;100.00;99903.69;714558;1199;114005;-81
2022/01/02 11:17:14;;;;;;;154.80;58.13;;;;;;;10.56;100.00;99879.63;714948;1200;113875;-81
2022/01/02 11:32:27;;;;;;;74.60;36.43;;;;;;;10.51;100.00;99839.07;714438;1199;115587;-80
2022/01/02 11:47:39;;;;;;;44.35;22.45;;;;;;;10.63;100.00;99777.56;714320;1200;114101;-73
2022/01/02 12:02:45;;;;;;;39.77;20.90;;;;;;;10.49;100.00;99763.14;714408;1203;115394;-73
2022/01/02 12:18:10;;;;;;;51.30;25.15;;;;;;;10.42;100.00;99791.75;714604;1200;113990;-74
2022/01/02 12:33:30;;;;;;;52.15;26.63;;;;;;;10.36;100.00;99718.94;714692;1200;115204;-74
2022/01/02 12:48:34;;;;;;;55.68;32.33;;;;;;;10.24;100.00;99685.98;714439;1200;114076;-74
2022/01/02 13:03:36;;;;;;;52.47;29.47;;;;;;;10.23;100.00;99658.16;714481;1181;114464;-75
2022/01/02 13:18:39;;;;;;;44.75;26.43;;;;;;;10.19;100.00;99643.66;714571;1200;114107;-75
2022/01/02 13:33:45;;;;;;;46.50;24.35;;;;;;;10.28;100.00;99621.80;714550;1177;113817;-75
2022/01/02 13:48:47;;;;;;;45.78;24.28;;;;;;;10.34;100.00;99597.62;714837;1203;114431;-77
2022/01/02 14:03:59;;;;;;;44.35;21.40;;;;;;;10.49;100.00;99575.17;714691;1203;113981;-74
2022/01/02 14:19:05;;;;;;;33.33;15.00;;;;;;;10.63;100.00;99549.37;715301;1176;113879;-87
2022/01/02 14:34:07;;;;;;;23.53;13.07;;;;;;;10.87;100.00;99535.56;715077;1174;113872;-84
2022/01/02 14:49:09;;;;;;;24.63;12.03;;;;;;;10.89;100.00;99519.70;714971;1177;113987;-84
2022/01/02 15:04:12;;;;;;;29.60;14.80;;;;;;;10.95;100.00;99513.80;715421;1199;114094;-87
2022/01/02 15:19:16;;;;;;;32.73;13.33;;;;;;;11.07;100.00;99488.95;715112;1202;113988;-83
2022/01/02 15:34:18;;;;;;;37.30;19.25;;;;;;;11.23;100.00;99466.34;715000;1200;114562;-88
2022/01/02 15:49:21;;;;;;;22.55;12.95;;;;;;;11.31;100.00;99440.13;714569;1200;114013;-86
2022/01/02 16:04:23;;;;;;;37.70;16.70;;;;;;;11.36;100.00;99408.93;714723;1178;114144;-84
2022/01/02 16:19:26;;;;;;;46.80;17.88;;;;;;;11.43;100.00;99398.63;714545;1174;113587;-86
2022/01/02 16:34:30;;;;;;;18.20;10.23;;;;;;;11.50;100.00;99378.59;715075;1199;114045;-84
2022/01/02 16:49:32;;;;;;;22.93;11.68;;;;;;;11.43;100.00;99346.11;714450;1177;113997;-83
2022/01/02 17:04:35;;;;;;;18.75;10.88;;;;;;;11.43;100.00;99331.16;714560;1199;113879;-85
2022/01/02 17:19:38;;;;;;;18.40;9.60;;;;;;;11.45;100.00;99297.66;714944;1177;114084;-86
2022/01/02 17:34:40;;;;;;;25.23;13.30;;;;;;;11.46;100.00;99287.99;714750;1200;115545;-86
2022/01/02 17:49:43;;;;;;;22.05;10.95;;;;;;;11.52;100.00;99276.00;715337;1177;113867;-86
2022/01/02 18:04:47;;;;;;;20.65;10.63;;;;;;;11.43;100.00;99267.33;714787;1176;114885;-76
2022/01/02 18:19:50;;;;;;;25.80;13.88;;;;;;;11.49;100.00;99240.38;714303;1177;114226;-78
2022/01/02 18:34:53;;;;;;;23.65;16.08;;;;;;;11.48;100.00;99236.95;715569;1177;114062;-85
2022/01/02 18:49:55;;;;;;;26.53;14.58;;;;;;;11.60;100.00;99148.11;715187;1176;113977;-86
2022/01/02 19:04:59;;;;;;;20.38;11.05;;;;;;;11.68;100.00;99133.30;715422;1200;114765;-86
2022/01/02 19:20:04;;;;;;;13.60;8.33;;;;;;;11.66;100.00;99117.70;714556;1200;114221;-75
2022/01/02 19:35:08;;;;;;;46.28;15.50;;;;;;;11.60;100.00;99107.88;714731;1203;114005;-74
2022/01/02 19:50:11;;;;;;;19.60;9.57;;;;;;;11.72;100.00;99088.14;714608;1199;115620;-80
2022/01/02 20:05:14;;;;;;;15.73;8.18;;;;;;;11.72;100.00;99061.03;714518;1205;114540;-79
2022/01/02 20:20:18;;;;;;;20.88;9.70;;;;;;;11.71;100.00;99057.59;714854;1177;113879;-80
2022/01/02 20:35:21;;;;;;;18.80;9.88;;;;;;;11.76;100.00;99044.76;714868;1200;114365;-82
2022/01/02 20:50:24;;;;;;;18.65;9.93;;;;;;;11.72;100.00;99025.09;714906;1177;114475;-82
2022/01/02 21:05:27;;;;;;;16.53;9.33;;;;;;;11.69;100.00;99009.65;714454;1177;114901;-83
2022/01/02 21:20:29;;;;;;;26.93;11.85;;;;;;;11.70;100.00;99000.78;715011;1199;114002;-83
2022/01/02 21:35:33;;;;;;;37.15;15.10;;;;;;;11.73;100.00;98979.44;714025;1200;114262;-83
2022/01/02 21:50:35;;;;;;;24.78;12.70;;;;;;;11.72;100.00;98983.05;714255;1177;114169;-83
2022/01/02 22:05:43;;;;;;;19.90;10.30;;;;;;;11.85;100.00;98955.37;714373;1175;114575;-83
2022/01/02 22:20:48;;;;;;;14.98;9.05;;;;;;;11.83;100.00;98937.16;714207;1199;114418;-82
2022/01/02 22:35:51;;;;;;;22.75;11.60;;;;;;;11.80;100.00;98916.50;714195;1199;113943;-83
2022/01/02 22:50:55;;;;;;;14.38;8.03;;;;;;;11.60;100.00;98935.36;714176;1203;114816;-82
2022/01/02 23:06:02;;;;;;;10.67;6.87;;;;;;;11.68;100.00;98913.47;714373;1176;114456;-83
2022/01/02 23:21:09;;;;;;;11.50;5.60;;;;;;;11.77;100.00;98901.07;714180;1199;114572;-81
2022/01/02 23:36:11;;;;;;;7.80;4.83;;;;;;;11.94;100.00;98935.91;713770;1180;113953;-81
2022/01/02 23:51:21;;;;;;;9.05;5.43;;;;;;;11.83;100.00;98927.45;713789;1200;114260;-83
